createdAt,value
2023-04-03T00:03:03.169Z,101853.09
2023-04-03T00:13:06.297Z,101862.06
2023-04-03T00:23:09.399Z,101866.38
2023-04-03T00:33:15.627Z,101857.53
2023-04-03T00:43:24.517Z,101864.69
2023-04-03T00:53:32.216Z,101865.81
2023-04-03T01:03:34.618Z,101875.97
2023-04-03T01:13:40.395Z,101879.94
2023-04-03T01:23:53.213Z,101877.53
2023-04-03T01:33:58.799Z,101884.59
2023-04-03T01:44:01.535Z,101889.28
2023-04-03T01:54:04.188Z,101881.66
2023-04-03T02:04:06.917Z,101879.25
2023-04-03T02:14:09.460Z,101888.41
2023-04-03T02:24:11.782Z,101904.47
2023-04-03T02:34:15.015Z,101904.97
2023-04-03T02:44:18.984Z,101908.81
2023-04-03T02:54:24.323Z,101920.66
2023-04-03T03:04:30.477Z,101935.44
2023-04-03T03:14:33.051Z,101931.03
2023-04-03T03:24:35.318Z,101927.50
2023-04-03T03:34:37.677Z,101928.72
2023-04-03T03:44:41.649Z,101928.47
2023-04-03T03:54:43.918Z,101937.19
2023-04-03T04:04:46.884Z,101931.47
2023-04-03T04:14:49.660Z,101942.38
2023-04-03T04:24:52.384Z,101943.75
2023-04-03T04:34:55.074Z,101945.69
2023-04-03T04:44:57.925Z,101960.38
2023-04-03T04:55:00.980Z,101972.56
2023-04-03T05:05:05.342Z,101972.75
2023-04-03T05:15:09.436Z,101979.34
2023-04-03T05:25:15.775Z,101996.69
2023-04-03T05:35:20.329Z,102003.63
2023-04-03T05:45:26.444Z,102024.31
2023-04-03T05:55:28.963Z,102043.56
2023-04-03T06:05:31.349Z,102048.56
2023-04-03T06:15:33.734Z,102053.50
2023-04-03T06:25:36.995Z,102043.50
2023-04-03T06:35:40.363Z,102062.56
2023-04-03T06:45:42.818Z,102053.34
2023-04-03T06:55:45.281Z,102048.31
2023-04-03T07:05:47.579Z,102064.81
2023-04-03T07:15:50.324Z,102071.47
2023-04-03T07:25:53.424Z,102077.00
2023-04-03T07:35:56.211Z,102087.69
2023-04-03T07:45:58.673Z,102104.56
2023-04-03T07:56:02.557Z,102094.69
2023-04-03T08:06:11.926Z,102105.56
2023-04-03T08:16:21.398Z,102104.25
2023-04-03T08:26:23.931Z,102093.91
2023-04-03T08:36:28.517Z,102094.72
2023-04-03T08:46:46.958Z,102094.53
2023-04-03T08:56:49.323Z,102102.16
2023-04-03T09:06:55.397Z,102090.84
2023-04-03T09:17:01.244Z,102095.84
2023-04-03T09:27:10.476Z,102102.81
2023-04-03T09:37:39.038Z,102098.13
2023-04-03T09:47:42.914Z,102090.50
2023-04-03T09:57:46.943Z,102072.44
2023-04-03T10:07:55.052Z,102073.00
2023-04-03T10:18:29.477Z,102066.56
2023-04-03T10:28:50.486Z,102061.09
2023-04-03T10:39:02.264Z,102061.28
2023-04-03T10:49:34.958Z,102049.88
2023-04-03T10:59:59.626Z,102041.84
2023-04-03T11:10:09.528Z,102030.94
2023-04-03T11:20:20.021Z,102015.38
2023-04-03T11:30:22.032Z,101998.56
2023-04-03T11:40:24.442Z,102002.84
2023-04-03T11:50:36.153Z,101991.34
2023-04-03T12:00:56.810Z,101974.44
2023-04-03T12:11:19.917Z,101984.66
2023-04-03T12:21:47.671Z,101979.34
2023-04-03T12:32:11.822Z,101954.13
2023-04-03T12:42:18.844Z,101938.88
2023-04-03T12:52:42.766Z,101931.19
2023-04-03T13:02:46.321Z,101915.94
2023-04-03T13:12:49.667Z,101914.75
2023-04-03T13:22:58.705Z,101915.06
2023-04-03T13:33:03.911Z,101905.84
2023-04-03T13:43:17.584Z,101910.50
2023-04-03T13:53:19.788Z,101892.63
2023-04-03T14:03:43.339Z,101883.50
2023-04-03T14:13:52.491Z,101878.03
2023-04-03T14:23:54.668Z,101867.25
2023-04-03T14:33:56.886Z,101846.44
2023-04-03T14:43:59.348Z,101860.59
2023-04-03T14:54:01.877Z,101840.16
2023-04-03T15:04:15.080Z,101847.38
2023-04-03T15:14:29.585Z,101828.97
2023-04-03T15:24:39.384Z,101837.59
2023-04-03T15:34:41.725Z,101838.94
2023-04-03T15:44:44.174Z,101839.06
2023-04-03T15:54:47.258Z,101835.06
2023-04-03T16:04:50.131Z,101843.03
2023-04-03T16:14:53.097Z,101848.53
2023-04-03T16:24:55.514Z,101850.06
2023-04-03T16:34:58.580Z,101844.72
2023-04-03T16:45:03.873Z,101843.53
2023-04-03T16:55:08.018Z,101841.69
2023-04-03T17:05:10.799Z,101854.97
2023-04-03T17:15:14.102Z,101855.50
2023-04-03T17:25:16.644Z,101850.84
2023-04-03T17:35:18.812Z,101851.03
2023-04-03T17:45:20.994Z,101866.34
2023-04-03T17:55:23.187Z,101866.34
2023-04-03T18:05:31.552Z,101856.09
2023-04-03T18:15:33.743Z,101866.94
2023-04-03T18:25:37.831Z,101882.84
2023-04-03T18:35:40.058Z,101865.16
2023-04-03T18:45:43.673Z,101875.56
2023-04-03T18:55:47.351Z,101874.00
2023-04-03T19:05:49.538Z,101879.84
2023-04-03T19:15:59.148Z,101889.25
2023-04-03T19:26:03.862Z,101898.00
2023-04-03T19:36:06.721Z,101899.56
2023-04-03T19:46:09.632Z,101897.50
2023-04-03T19:56:11.963Z,101893.28
2023-04-03T20:06:21.754Z,101903.50
2023-04-03T20:16:25.818Z,101886.31
2023-04-03T20:26:31.646Z,101888.88
2023-04-03T20:36:34.932Z,101882.25
2023-04-03T20:46:51.290Z,101881.00
2023-04-03T20:56:56.044Z,101879.06
2023-04-03T21:07:38.832Z,101869.59
2023-04-03T21:17:59.824Z,101859.50
2023-04-03T21:28:02.870Z,101869.34
2023-04-03T21:38:06.579Z,101874.53
2023-04-03T21:48:10.338Z,101879.59
2023-04-03T21:58:12.627Z,101877.72
2023-04-03T22:08:15.172Z,101869.25
2023-04-03T22:18:17.602Z,101854.22
2023-04-03T22:28:20.646Z,101851.03
2023-04-03T22:38:23.056Z,101849.69
2023-04-03T22:48:25.700Z,101838.66
2023-04-03T22:58:28.797Z,101839.94
2023-04-03T23:08:32.495Z,101851.78
2023-04-03T23:18:35.154Z,101853.75
2023-04-03T23:28:37.325Z,101860.63
2023-04-03T23:38:39.434Z,101864.59
2023-04-03T23:48:41.642Z,101858.19
2023-04-03T23:58:43.736Z,101866.78
